createdAt,value
2023-02-09T10:32:45.463Z,17.90
2023-02-09T10:35:27.963Z,18.90
2023-02-09T10:38:02.327Z,15.90
2023-02-09T10:40:39.461Z,15.90
2023-02-09T10:43:39.073Z,16.50
2023-02-09T10:46:48.555Z,15.90
2023-02-09T10:49:35.576Z,15.00
2023-02-09T10:52:10.636Z,14.50
2023-02-09T10:54:49.016Z,15.10
2023-02-09T10:57:37.574Z,16.90
2023-02-09T11:00:17.222Z,15.30
2023-02-09T11:02:48.772Z,16.60
2023-02-09T11:05:23.406Z,16.90
2023-02-09T11:08:16.846Z,17.80
2023-02-09T11:10:58.719Z,18.00
2023-02-09T11:13:27.603Z,17.40
2023-02-09T11:16:14.311Z,17.60
2023-02-09T11:18:49.683Z,16.00
2023-02-09T11:21:33.231Z,17.30
2023-02-09T11:24:12.482Z,17.40
2023-02-09T11:26:50.041Z,16.60
2023-02-09T11:38:14.235Z,15.90
2023-02-09T11:40:48.603Z,16.00
2023-02-09T11:43:41.665Z,17.80
2023-02-09T11:46:23.309Z,15.90
2023-02-09T11:49:00.771Z,16.50
2023-02-09T11:51:31.616Z,15.80
2023-02-09T11:54:09.238Z,15.70
2023-02-09T11:56:46.636Z,16.10
2023-02-09T11:59:37.335Z,14.80
2023-02-09T12:02:15.647Z,15.40
2023-02-09T12:05:17.269Z,14.70
2023-02-09T12:08:30.141Z,15.20
2023-02-09T12:11:23.894Z,13.70
2023-02-09T12:14:01.349Z,14.00
2023-02-09T12:16:43.051Z,14.00
2023-02-09T12:19:34.882Z,14.80
2023-02-09T12:22:34.907Z,14.20
2023-02-09T12:25:12.342Z,12.70
2023-02-09T12:27:43.275Z,12.30
2023-02-09T12:30:43.189Z,11.40
2023-02-09T12:33:24.249Z,11.70
2023-02-09T12:36:04.643Z,10.70
2023-02-09T12:39:03.852Z,10.60
2023-02-09T12:41:55.473Z,11.10
2023-02-09T12:44:23.941Z,10.60
2023-02-09T12:46:55.650Z,10.60
2023-02-09T12:49:30.961Z,10.60
2023-02-09T12:52:02.428Z,10.00
2023-02-09T12:54:57.082Z,10.50
2023-02-09T12:58:08.400Z,10.80
2023-02-09T13:00:42.903Z,11.20
2023-02-09T13:03:17.413Z,11.10
2023-02-09T13:05:48.144Z,10.50
2023-02-09T13:08:24.647Z,10.80
2023-02-09T13:11:25.479Z,9.70
2023-02-09T13:16:31.436Z,10.30
2023-02-09T13:19:18.710Z,10.50
2023-02-09T13:22:02.491Z,10.00
2023-02-09T13:24:53.355Z,10.00
2023-02-09T13:29:57.455Z,9.70
2023-02-09T13:32:50.656Z,10.60
2023-02-09T13:35:34.948Z,10.60
2023-02-09T13:38:17.074Z,9.90
2023-02-09T13:40:49.053Z,10.20
2023-02-09T13:43:29.885Z,10.10
2023-02-09T13:46:00.299Z,9.70
2023-02-09T13:51:05.177Z,8.40
2023-02-09T13:53:36.100Z,9.70
2023-02-09T13:56:12.392Z,9.40
2023-02-09T13:58:40.930Z,9.80
2023-02-09T14:01:26.587Z,9.80
2023-02-09T14:04:16.399Z,9.30
2023-02-09T14:06:52.433Z,9.40
2023-02-09T14:09:30.177Z,9.80
2023-02-09T14:12:06.838Z,8.90
2023-02-09T14:15:01.138Z,9.20
2023-02-09T14:17:38.844Z,9.10
2023-02-09T14:20:21.865Z,8.50
2023-02-09T14:23:02.441Z,8.70
2023-02-09T14:25:34.246Z,8.80
2023-02-09T14:28:03.957Z,8.10
2023-02-09T14:30:38.082Z,8.30
2023-02-09T14:33:08.317Z,9.20
2023-02-09T14:38:48.282Z,8.60
2023-02-09T14:41:26.246Z,8.40
2023-02-09T14:44:22.720Z,9.20
2023-02-09T14:46:56.154Z,9.10
2023-02-09T14:49:26.776Z,9.90
2023-02-09T14:52:07.040Z,9.60
2023-02-09T14:54:46.950Z,9.90
2023-02-09T14:59:51.615Z,10.50
2023-02-09T15:02:26.774Z,10.80
2023-02-09T15:05:00.831Z,11.20
2023-02-09T15:07:45.816Z,11.40
2023-02-09T15:10:29.549Z,12.10
2023-02-09T15:12:58.987Z,12.40
2023-02-09T15:15:28.004Z,13.40
2023-02-09T15:17:59.485Z,13.30
2023-02-09T15:20:31.568Z,13.20
2023-02-09T15:23:02.476Z,13.60
2023-02-09T15:25:31.455Z,12.60
2023-02-09T15:28:03.157Z,13.60
2023-02-09T15:30:36.093Z,13.30
2023-02-09T15:33:07.186Z,13.90
2023-02-09T15:35:42.910Z,13.80
2023-02-09T15:38:15.834Z,12.10
2023-02-09T15:41:15.313Z,12.70
2023-02-09T15:44:06.133Z,12.40
2023-02-09T15:46:53.305Z,12.90
2023-02-09T15:49:26.726Z,12.80
2023-02-09T15:51:55.008Z,11.90
2023-02-09T15:54:30.420Z,14.50
2023-02-09T15:57:04.281Z,16.00
2023-02-09T15:59:39.507Z,15.00
2023-02-09T16:02:13.993Z,14.90
2023-02-09T16:04:43.652Z,13.30
2023-02-09T16:07:25.096Z,14.20
2023-02-09T16:09:54.401Z,14.00
2023-02-09T16:12:26.152Z,13.60
2023-02-09T16:14:59.237Z,12.60
2023-02-09T16:17:29.168Z,14.60
2023-02-09T16:19:59.860Z,14.20
2023-02-09T16:22:29.247Z,15.20
2023-02-09T16:24:58.762Z,13.70
2023-02-09T16:27:29.853Z,13.90
2023-02-09T16:29:59.909Z,14.40
2023-02-09T16:32:32.702Z,14.40
2023-02-09T16:44:49.015Z,13.20
2023-02-09T16:47:40.472Z,14.30
2023-02-09T16:50:33.754Z,13.40
2023-02-09T16:53:14.345Z,15.50
2023-02-09T16:55:49.248Z,16.90
2023-02-09T16:58:22.065Z,15.10
2023-02-09T17:00:52.510Z,15.40
2023-02-09T17:05:58.026Z,13.90
2023-02-09T17:08:32.371Z,15.70
2023-02-09T17:11:04.368Z,14.10
2023-02-09T17:13:33.118Z,13.70
2023-02-09T17:16:05.603Z,14.50
2023-02-09T17:18:39.374Z,13.90
2023-02-09T17:21:21.225Z,13.50
2023-02-09T17:23:51.219Z,14.90
2023-02-09T17:26:21.012Z,13.50
2023-02-09T17:28:49.774Z,12.80
2023-02-09T17:31:25.900Z,13.90
2023-02-09T17:33:57.583Z,13.50
2023-02-09T17:36:28.630Z,15.00
2023-02-09T17:39:03.132Z,15.40
2023-02-09T17:41:48.706Z,16.30
2023-02-09T17:44:45.137Z,15.40
2023-02-09T17:47:30.648Z,14.10
2023-02-09T17:50:08.470Z,13.90
2023-02-09T17:52:39.488Z,14.00
2023-02-09T17:55:16.635Z,14.00
2023-02-09T17:57:45.583Z,15.30
2023-02-09T18:00:15.852Z,15.20
2023-02-09T18:02:45.720Z,12.90
2023-02-09T18:05:21.085Z,14.20
2023-02-09T18:07:50.073Z,13.90
2023-02-09T18:10:21.560Z,15.00
2023-02-09T18:12:53.370Z,14.10
2023-02-09T18:15:26.068Z,14.80
2023-02-09T18:17:55.056Z,14.30
2023-02-09T18:20:28.211Z,16.50
2023-02-09T18:22:59.188Z,14.00
2023-02-09T18:25:37.821Z,16.40
2023-02-09T18:28:12.399Z,15.60
2023-02-09T18:30:43.737Z,16.80
2023-02-09T18:33:19.544Z,15.60
2023-02-09T18:36:01.470Z,14.70
2023-02-09T18:38:31.920Z,15.90
2023-02-09T18:41:03.943Z,15.70
2023-02-09T18:43:32.499Z,14.50
2023-02-09T18:46:02.248Z,16.30
2023-02-09T18:48:34.032Z,15.50
2023-02-09T18:51:05.549Z,16.80
2023-02-09T18:53:38.916Z,16.70
2023-02-09T18:56:59.405Z,16.40
2023-02-09T18:59:32.502Z,17.30
2023-02-09T19:02:04.085Z,17.40
2023-02-09T19:04:41.190Z,18.00
2023-02-09T19:07:45.719Z,17.00
2023-02-09T19:10:23.435Z,17.30
2023-02-09T19:12:54.422Z,15.40
2023-02-09T19:15:30.226Z,17.40
2023-02-09T19:18:00.315Z,17.10
2023-02-09T19:20:31.361Z,16.00
2023-02-09T19:23:00.413Z,16.80
2023-02-09T19:25:31.355Z,15.60
2023-02-09T19:28:00.558Z,16.30
2023-02-09T19:30:29.078Z,18.80
2023-02-09T19:33:02.395Z,16.60
2023-02-09T19:35:32.362Z,17.20
2023-02-09T19:38:00.912Z,17.70
2023-02-09T19:40:36.560Z,16.70
2023-02-09T19:43:08.786Z,17.40
2023-02-09T19:45:37.964Z,16.60
2023-02-09T19:48:09.725Z,17.60
2023-02-09T19:50:40.694Z,17.20
2023-02-09T19:53:09.807Z,16.70
2023-02-09T19:55:39.234Z,18.10
2023-02-09T19:58:09.145Z,17.70
2023-02-09T20:00:38.683Z,16.40
2023-02-09T20:03:14.175Z,18.70
2023-02-09T20:05:44.993Z,15.70
2023-02-09T20:08:19.309Z,17.60
2023-02-09T20:10:48.870Z,16.50
2023-02-09T20:15:50.742Z,16.00
2023-02-09T20:18:25.677Z,18.40
2023-02-09T20:20:56.754Z,18.00
2023-02-09T20:23:25.350Z,18.80
2023-02-09T20:25:58.276Z,17.80
2023-02-09T20:28:27.632Z,18.60
2023-02-09T20:31:02.123Z,17.80
2023-02-09T20:33:32.504Z,16.30
2023-02-09T20:36:09.764Z,20.40
2023-02-09T20:38:40.062Z,17.80
2023-02-09T20:41:11.924Z,17.60
2023-02-09T20:44:00.191Z,20.00
2023-02-09T20:46:52.351Z,18.30
2023-02-09T20:49:38.571Z,19.00
2023-02-09T20:52:21.963Z,19.00
2023-02-09T20:54:52.308Z,19.00
2023-02-09T20:57:36.798Z,21.70
2023-02-09T21:00:10.712Z,20.20
2023-02-09T21:02:42.695Z,18.20
2023-02-09T21:05:15.473Z,18.90
2023-02-09T21:07:47.061Z,17.70
2023-02-09T21:10:20.309Z,18.10
2023-02-09T21:12:49.502Z,18.10
2023-02-09T21:15:18.563Z,18.90
2023-02-09T21:17:50.567Z,17.80
2023-02-09T21:20:22.758Z,18.00
2023-02-09T21:22:54.698Z,18.80
2023-02-09T21:25:29.269Z,18.00
2023-02-09T21:28:03.953Z,18.60
2023-02-09T21:30:39.460Z,16.70
2023-02-09T21:33:12.047Z,17.40
2023-02-09T21:35:42.201Z,17.70
2023-02-09T21:38:10.786Z,19.30
2023-02-09T21:40:42.630Z,18.30
2023-02-09T21:43:27.075Z,20.00
2023-02-09T21:45:55.435Z,18.40
2023-02-09T21:48:24.652Z,18.40
2023-02-09T21:50:53.729Z,15.30
2023-02-09T21:53:23.468Z,17.50
2023-02-09T21:55:52.934Z,18.10
2023-02-09T21:58:21.682Z,16.50
2023-02-09T22:00:58.250Z,16.20
2023-02-09T22:03:26.720Z,16.10
2023-02-09T22:06:02.708Z,15.30
2023-02-09T22:08:31.802Z,14.10
2023-02-09T22:11:02.601Z,15.80
2023-02-09T22:13:31.189Z,13.90
2023-02-09T22:15:59.544Z,15.00
2023-02-09T22:18:27.811Z,15.50
2023-02-09T22:20:57.587Z,14.90
2023-02-09T22:23:27.340Z,16.10
2023-02-09T22:26:02.681Z,16.80
2023-02-09T22:28:32.626Z,17.30
2023-02-09T22:31:13.301Z,15.40
2023-02-09T22:33:42.622Z,14.90
2023-02-09T22:36:19.060Z,15.20
2023-02-09T22:38:47.513Z,16.10
2023-02-09T22:41:22.064Z,14.40
2023-02-09T22:43:59.659Z,13.90
2023-02-09T22:46:31.551Z,14.80
2023-02-09T22:49:02.250Z,15.50
2023-02-09T22:54:00.523Z,13.40
2023-02-09T22:56:29.973Z,14.60
2023-02-09T22:58:59.891Z,13.30
2023-02-09T23:01:29.520Z,15.30
2023-02-09T23:03:58.795Z,14.40
2023-02-09T23:06:30.229Z,15.90
2023-02-09T23:09:04.944Z,13.90
2023-02-09T23:11:34.072Z,13.10
2023-02-09T23:14:10.937Z,15.00
2023-02-09T23:16:41.766Z,13.00
2023-02-09T23:19:14.350Z,15.20
2023-02-09T23:21:45.526Z,13.80
2023-02-09T23:24:17.041Z,14.60
2023-02-09T23:26:45.483Z,12.80
2023-02-09T23:29:15.921Z,14.00
2023-02-09T23:31:45.616Z,13.40
2023-02-09T23:34:17.998Z,13.80
2023-02-09T23:36:47.199Z,12.20
2023-02-09T23:39:18.772Z,13.50
2023-02-09T23:41:49.192Z,13.30
2023-02-09T23:44:19.724Z,14.20
2023-02-09T23:46:48.373Z,15.00
2023-02-09T23:49:16.839Z,12.80
2023-02-09T23:51:47.010Z,13.80
2023-02-09T23:54:15.437Z,12.50
2023-02-09T23:56:45.538Z,13.10
2023-02-09T23:59:16.346Z,12.10
